Al Mukalla, Yemen
Current Conditions -  °F | °C
As of 7:00 PM on Friday 28 Nov 2014 (Local Time) from OESH Reporting Station
Clear Clear  
Wind Chill: 86°   Ceiling: Unl
Heat Index: 86°   Visibility: 6mi
Dew Point: 48°   Wind: 6mph
Humidity: 27%   Direction: 20°NNE
Pressure: 29.97"   Gusts: NA
Location:  14.54°N, 49.13°E
Report Text: OESH 281600Z 02005KT CAVOK 30/09 Q1015 NOSIG
Loading
Personal Weather Stations






























Interactive Weather Map New forecast layout! Learn more

10-Day Weather Forecast

Advertisements
Track Severe Weather on mobile